createdAt,value
2024-02-07T00:01:17.142Z,95589.40
2024-02-07T00:03:44.850Z,95592.20
2024-02-07T00:06:13.539Z,95588.34
2024-02-07T00:08:40.453Z,95587.42
2024-02-07T00:11:07.791Z,95590.19
2024-02-07T00:13:34.535Z,95585.44
2024-02-07T00:16:01.272Z,95585.05
2024-02-07T00:18:27.826Z,95583.90
2024-02-07T00:20:54.808Z,95575.21
2024-02-07T00:23:21.227Z,95569.18
2024-02-07T00:25:47.892Z,95571.14
2024-02-07T00:28:14.451Z,95529.42
2024-02-07T00:30:41.115Z,95562.92
2024-02-07T00:33:07.746Z,95562.17
2024-02-07T00:35:34.520Z,95563.73
2024-02-07T00:38:01.231Z,95533.05
2024-02-07T00:40:28.376Z,95548.74
2024-02-07T00:42:55.487Z,95544.27
2024-02-07T00:45:21.936Z,95541.20
2024-02-07T00:47:48.406Z,95513.64
2024-02-07T00:50:15.016Z,95533.04
2024-02-07T00:52:41.592Z,95532.11
2024-02-07T00:55:08.701Z,95526.44
2024-02-07T00:57:35.563Z,95529.45
2024-02-07T01:00:02.698Z,95530.86
2024-02-07T01:02:29.175Z,95531.17
2024-02-07T01:04:55.813Z,95536.19
2024-02-07T01:07:22.800Z,95537.90
2024-02-07T01:09:49.712Z,95528.88
2024-02-07T01:12:16.237Z,95512.23
2024-02-07T01:14:43.138Z,95532.36
2024-02-07T01:17:09.710Z,95527.75
2024-02-07T01:19:37.170Z,95528.70
2024-02-07T01:22:03.790Z,95521.64
2024-02-07T01:24:30.271Z,95529.98
2024-02-07T01:26:57.661Z,95522.89
2024-02-07T01:29:24.279Z,95517.81
2024-02-07T01:31:50.823Z,95514.42
2024-02-07T01:34:17.545Z,95510.81
2024-02-07T01:36:47.078Z,95508.05
2024-02-07T01:39:17.187Z,95502.00
2024-02-07T01:41:58.700Z,95498.39
2024-02-07T01:44:26.756Z,95494.23
2024-02-07T01:46:53.268Z,95494.00
2024-02-07T01:49:19.830Z,95493.55
2024-02-07T01:51:47.680Z,95489.47
2024-02-07T01:54:14.073Z,95485.84
2024-02-07T01:56:41.026Z,95489.17
2024-02-07T01:59:07.526Z,95483.32
2024-02-07T02:01:34.685Z,95484.27
2024-02-07T02:04:01.333Z,95460.06
2024-02-07T02:06:27.864Z,95471.35
2024-02-07T02:08:55.344Z,95467.25
2024-02-07T02:11:28.821Z,95460.72
2024-02-07T02:13:55.439Z,95458.35
2024-02-07T02:16:21.872Z,95430.16
2024-02-07T02:18:48.392Z,95445.63
2024-02-07T02:21:20.453Z,95444.11
2024-02-07T02:24:22.453Z,95438.52
2024-02-07T02:27:06.440Z,95434.22
2024-02-07T02:29:39.048Z,95433.80
2024-02-07T02:32:06.178Z,95432.60
2024-02-07T02:34:32.884Z,95433.86
2024-02-07T02:37:00.084Z,95400.84
2024-02-07T02:39:30.465Z,95427.95
2024-02-07T02:41:57.394Z,95429.83
2024-02-07T02:44:24.604Z,95413.00
2024-02-07T02:46:51.278Z,95431.77
2024-02-07T02:49:17.894Z,95443.96
2024-02-07T02:51:44.365Z,95412.19
2024-02-07T02:54:13.556Z,95432.55
2024-02-07T02:56:40.080Z,95422.29
2024-02-07T02:59:06.938Z,95422.02
2024-02-07T03:01:33.945Z,95423.70
2024-02-07T03:04:00.925Z,95400.86
2024-02-07T03:06:30.589Z,95417.58
2024-02-07T03:09:07.376Z,95411.63
2024-02-07T03:11:34.481Z,95379.11
2024-02-07T03:14:04.586Z,95392.80
2024-02-07T03:16:31.141Z,95392.86
2024-02-07T03:18:59.991Z,95387.14
2024-02-07T03:21:29.638Z,95385.52
2024-02-07T03:23:59.077Z,95384.44
2024-02-07T03:26:25.549Z,95382.11
2024-02-07T03:28:53.292Z,95378.90
2024-02-07T03:31:20.066Z,95379.49
2024-02-07T03:33:46.591Z,95375.80
2024-02-07T03:36:13.007Z,95375.78
2024-02-07T03:38:39.542Z,95371.08
2024-02-07T03:41:06.889Z,95362.84
2024-02-07T03:43:35.123Z,95359.00
2024-02-07T03:46:06.717Z,95329.23
2024-02-07T03:48:35.874Z,95349.27
2024-02-07T03:51:03.670Z,95351.91
2024-02-07T03:53:32.119Z,95343.75
2024-02-07T03:55:58.928Z,95340.52
2024-02-07T03:58:29.599Z,95344.23
2024-02-07T04:00:56.144Z,95341.55
2024-02-07T04:03:22.611Z,95342.16
2024-02-07T04:05:49.031Z,95323.90
2024-02-07T04:08:15.783Z,95346.82
2024-02-07T04:10:45.080Z,95336.42
2024-02-07T04:13:11.989Z,95350.22
2024-02-07T04:15:57.055Z,95341.19
2024-02-07T04:18:42.303Z,95342.11
2024-02-07T04:21:27.417Z,95336.66
2024-02-07T04:24:12.536Z,95326.71
2024-02-07T04:26:57.741Z,95318.30
2024-02-07T04:29:43.014Z,95315.74
2024-02-07T04:32:28.075Z,95319.67
2024-02-07T04:35:13.042Z,95317.60
2024-02-07T04:37:58.363Z,95313.64
2024-02-07T04:40:43.208Z,95318.89
2024-02-07T04:43:28.089Z,95314.45
2024-02-07T04:46:13.128Z,95313.93
2024-02-07T04:48:58.114Z,95316.63
2024-02-07T04:51:43.363Z,95308.25
2024-02-07T04:54:28.278Z,95311.44
2024-02-07T04:57:13.149Z,95312.38
2024-02-07T04:59:58.332Z,95312.13
2024-02-07T05:02:43.216Z,95309.89
2024-02-07T05:05:28.371Z,95312.54
2024-02-07T05:08:13.185Z,95299.10
2024-02-07T05:10:58.195Z,95302.29
2024-02-07T05:13:43.191Z,95303.04
2024-02-07T05:16:14.244Z,95299.67
2024-02-07T05:18:41.215Z,95284.17
2024-02-07T05:21:12.826Z,95282.20
2024-02-07T05:23:40.075Z,95285.99
2024-02-07T05:26:06.554Z,95284.55
2024-02-07T05:28:33.049Z,95270.36
2024-02-07T05:30:59.507Z,95270.75
2024-02-07T05:33:26.263Z,95278.86
2024-02-07T05:35:53.487Z,95274.68
2024-02-07T05:38:19.978Z,95277.27
2024-02-07T05:40:46.670Z,95275.46
2024-02-07T05:43:13.393Z,95283.21
2024-02-07T05:45:39.834Z,95262.63
2024-02-07T05:48:06.694Z,95278.04
2024-02-07T05:50:33.157Z,95281.89
2024-02-07T05:52:59.586Z,95280.58
2024-02-07T05:55:26.083Z,95279.51
2024-02-07T05:57:52.580Z,95274.58
2024-02-07T06:00:19.158Z,95256.39
2024-02-07T06:02:45.573Z,95248.65
2024-02-07T06:05:12.719Z,95260.88
2024-02-07T06:07:39.267Z,95263.35
2024-02-07T06:10:06.327Z,95254.69
2024-02-07T06:12:32.756Z,95260.87
2024-02-07T06:15:02.285Z,95231.83
2024-02-07T06:17:30.392Z,95250.06
2024-02-07T06:19:57.222Z,95255.04
2024-02-07T06:22:23.970Z,95249.34
2024-02-07T06:24:50.528Z,95248.05
2024-02-07T06:27:16.934Z,95255.73
2024-02-07T06:29:43.735Z,95263.16
2024-02-07T06:32:10.323Z,95260.70
2024-02-07T06:34:37.897Z,95260.05
2024-02-07T06:37:04.540Z,95256.44
2024-02-07T06:39:31.087Z,95259.50
2024-02-07T06:41:57.516Z,95255.47
2024-02-07T06:44:24.116Z,95258.04
2024-02-07T06:46:50.728Z,95258.16
2024-02-07T06:49:17.441Z,95258.89
2024-02-07T06:51:44.203Z,95260.23
2024-02-07T06:54:11.519Z,95260.45
2024-02-07T06:56:38.133Z,95255.90
2024-02-07T06:59:04.798Z,95262.23
2024-02-07T07:01:31.406Z,95257.05
2024-02-07T07:03:58.902Z,95259.27
2024-02-07T07:06:27.508Z,95226.22
2024-02-07T07:08:54.148Z,95240.83
2024-02-07T07:11:21.187Z,95258.89
2024-02-07T07:13:47.920Z,95263.31
2024-02-07T07:16:14.513Z,95262.60
2024-02-07T07:18:41.228Z,95266.55
2024-02-07T07:21:07.735Z,95267.04
2024-02-07T07:23:34.180Z,95264.34
2024-02-07T07:26:00.757Z,95262.14
2024-02-07T07:28:27.390Z,95237.21
2024-02-07T07:30:56.126Z,95255.82
2024-02-07T07:33:24.214Z,95253.88
2024-02-07T07:35:50.873Z,95250.66
2024-02-07T07:38:17.487Z,95216.73
2024-02-07T07:40:44.008Z,95205.52
2024-02-07T07:43:11.000Z,95249.41
2024-02-07T07:45:37.569Z,95244.98
2024-02-07T07:48:04.737Z,95242.92
2024-02-07T07:50:31.357Z,95240.17
2024-02-07T07:52:58.031Z,95243.17
2024-02-07T07:55:24.554Z,95237.51
2024-02-07T07:57:51.050Z,95242.89
2024-02-07T08:00:17.654Z,95234.88
2024-02-07T08:02:44.128Z,95237.79
2024-02-07T08:05:11.062Z,95231.69
2024-02-07T08:07:37.982Z,95238.81
2024-02-07T08:10:04.929Z,95237.45
2024-02-07T08:12:31.421Z,95234.48
2024-02-07T08:14:57.902Z,95237.73
2024-02-07T08:17:24.502Z,95231.65
2024-02-07T08:19:51.096Z,95237.48
2024-02-07T08:22:17.667Z,95240.75
2024-02-07T08:24:44.128Z,95234.29
2024-02-07T08:27:10.530Z,95245.39
2024-02-07T08:29:36.954Z,95225.42
2024-02-07T08:32:03.473Z,95243.76
2024-02-07T08:34:30.537Z,95234.38
2024-02-07T08:36:57.143Z,95238.79
2024-02-07T08:39:23.690Z,95240.59
2024-02-07T08:41:50.174Z,95236.98
2024-02-07T08:44:16.610Z,95236.54
2024-02-07T08:46:44.782Z,95243.05
2024-02-07T08:49:11.651Z,95229.27
2024-02-07T08:51:38.556Z,95230.91
2024-02-07T08:54:05.388Z,95222.79
2024-02-07T08:56:31.849Z,95226.70
2024-02-07T08:58:58.403Z,95229.14
2024-02-07T09:01:25.178Z,95226.52
2024-02-07T09:03:51.763Z,95210.70
2024-02-07T09:06:18.409Z,95225.65
2024-02-07T09:08:45.172Z,95217.95
2024-02-07T09:11:11.601Z,95219.77
2024-02-07T09:13:38.157Z,95221.30
2024-02-07T09:16:04.954Z,95220.14
2024-02-07T09:18:31.518Z,95220.22
2024-02-07T09:20:57.973Z,95211.16
2024-02-07T09:23:24.400Z,95214.58
2024-02-07T09:25:50.917Z,95207.66
2024-02-07T09:28:17.418Z,95185.94
2024-02-07T09:30:43.850Z,95195.52
2024-02-07T09:33:11.794Z,95193.16
2024-02-07T09:35:38.836Z,95190.36
2024-02-07T09:38:05.541Z,95190.14
2024-02-07T09:40:32.335Z,95186.90
2024-02-07T09:42:58.980Z,95188.60
2024-02-07T09:45:25.428Z,95182.27
2024-02-07T09:47:57.596Z,95168.78
2024-02-07T09:50:24.281Z,95177.89
2024-02-07T09:52:51.083Z,95171.35
2024-02-07T09:55:17.691Z,95149.23
2024-02-07T09:57:44.218Z,95151.38
2024-02-07T10:00:11.108Z,95173.05
2024-02-07T10:02:38.178Z,95131.14
2024-02-07T10:05:06.048Z,95156.43
2024-02-07T10:07:33.504Z,95155.02
2024-02-07T10:10:00.166Z,95159.48
2024-02-07T10:12:26.612Z,95154.40
2024-02-07T10:14:53.051Z,95149.20
2024-02-07T10:17:19.514Z,95142.43
2024-02-07T10:19:45.927Z,95151.79
2024-02-07T10:22:17.971Z,95143.80
2024-02-07T10:24:45.599Z,95141.44
2024-02-07T10:27:18.357Z,95133.28
2024-02-07T10:29:44.791Z,95141.01
2024-02-07T10:32:18.977Z,95146.95
2024-02-07T10:34:56.753Z,95116.94
2024-02-07T10:37:24.537Z,95135.15
2024-02-07T10:39:51.042Z,95112.55
2024-02-07T10:42:18.020Z,95126.28
2024-02-07T10:44:44.650Z,95132.66
2024-02-07T10:47:11.451Z,95129.60
2024-02-07T10:49:38.025Z,95120.17
2024-02-07T10:52:04.833Z,95127.89
2024-02-07T10:54:31.410Z,95126.12
2024-02-07T10:56:58.895Z,95119.73
2024-02-07T10:59:26.881Z,95100.73
2024-02-07T11:01:53.494Z,95111.19
2024-02-07T11:04:20.056Z,95108.19
2024-02-07T11:06:46.620Z,95106.50
2024-02-07T11:09:13.055Z,95112.26
2024-02-07T11:11:39.858Z,95102.40
2024-02-07T11:14:06.993Z,95105.25
2024-02-07T11:16:33.590Z,95070.77
2024-02-07T11:19:00.202Z,95084.36
2024-02-07T11:21:30.461Z,95065.48
2024-02-07T11:23:56.933Z,95077.00
2024-02-07T11:26:23.500Z,95076.05
2024-02-07T11:28:50.817Z,95073.99
2024-02-07T11:31:20.417Z,95059.36
2024-02-07T11:33:51.028Z,95062.59
2024-02-07T11:36:17.964Z,95059.81
2024-02-07T11:38:56.828Z,95061.33
2024-02-07T11:41:23.631Z,95075.59
2024-02-07T11:43:56.418Z,95071.48
2024-02-07T11:46:23.887Z,95052.50
2024-02-07T11:48:54.041Z,95055.33
2024-02-07T11:51:24.326Z,95027.39
2024-02-07T11:53:50.964Z,95057.48
2024-02-07T11:56:21.908Z,95053.98
2024-02-07T11:58:50.374Z,95042.90
2024-02-07T12:01:17.343Z,95036.92
2024-02-07T12:03:43.899Z,95032.89
2024-02-07T12:06:13.496Z,95029.81
2024-02-07T12:08:40.392Z,95026.61
2024-02-07T12:11:10.543Z,95021.10
2024-02-07T12:13:38.094Z,95025.63
2024-02-07T12:16:09.564Z,95018.09
2024-02-07T12:18:36.731Z,95013.98
2024-02-07T12:21:03.998Z,95018.05
2024-02-07T12:23:30.874Z,95027.73
2024-02-07T12:26:01.154Z,95008.17
2024-02-07T12:28:27.957Z,95000.84
2024-02-07T12:31:00.826Z,95009.08
2024-02-07T12:33:28.128Z,94994.64
2024-02-07T12:35:58.509Z,94999.16
2024-02-07T12:38:25.242Z,94991.96
2024-02-07T12:40:52.733Z,94971.39
2024-02-07T12:43:22.226Z,94985.89
2024-02-07T12:45:50.573Z,94986.90
2024-02-07T12:48:17.131Z,94982.50
2024-02-07T12:50:44.652Z,94988.21
2024-02-07T12:53:11.234Z,94973.40
2024-02-07T12:55:37.719Z,94972.23
2024-02-07T12:58:04.648Z,94975.79
2024-02-07T13:00:31.293Z,94953.68
2024-02-07T13:02:58.099Z,94968.67
2024-02-07T13:05:24.744Z,94970.80
2024-02-07T13:07:51.561Z,94962.62
2024-02-07T13:10:18.205Z,94960.60
2024-02-07T13:12:44.938Z,94962.05
2024-02-07T13:15:20.795Z,94958.95
2024-02-07T13:17:49.295Z,94965.30
2024-02-07T13:20:17.573Z,94948.86
2024-02-07T13:22:45.480Z,94952.81
2024-02-07T13:25:12.876Z,94948.93
2024-02-07T13:27:39.730Z,94948.62
2024-02-07T13:30:07.289Z,94927.46
2024-02-07T13:32:34.184Z,94946.26
2024-02-07T13:35:01.267Z,94926.27
2024-02-07T13:37:27.948Z,94936.32
2024-02-07T13:39:56.075Z,94921.30
2024-02-07T13:42:23.003Z,94936.60
2024-02-07T13:44:49.611Z,94930.66
2024-02-07T13:47:18.243Z,94928.99
2024-02-07T13:49:44.817Z,94923.98
2024-02-07T13:52:11.450Z,94926.64
2024-02-07T13:54:38.193Z,94919.89
2024-02-07T13:57:04.938Z,94926.32
2024-02-07T13:59:32.256Z,94914.00
2024-02-07T14:02:00.226Z,94908.33
2024-02-07T14:04:27.737Z,94909.52
2024-02-07T14:06:54.568Z,94910.95
2024-02-07T14:09:21.071Z,94905.23
2024-02-07T14:11:47.500Z,94903.36
2024-02-07T14:14:13.913Z,94895.06
2024-02-07T14:16:40.590Z,94894.85
2024-02-07T14:19:07.179Z,94896.85
2024-02-07T14:21:33.721Z,94894.55
2024-02-07T14:24:00.119Z,94893.00
2024-02-07T14:26:26.985Z,94898.83
2024-02-07T14:28:53.534Z,94880.48
2024-02-07T14:31:20.137Z,94885.80
2024-02-07T14:33:46.838Z,94892.75
2024-02-07T14:36:13.344Z,94875.56
2024-02-07T14:38:39.811Z,94887.67
2024-02-07T14:41:06.309Z,94899.48
2024-02-07T14:43:32.832Z,94892.75
2024-02-07T14:45:59.274Z,94894.05
2024-02-07T14:48:25.995Z,94893.87
2024-02-07T14:50:52.712Z,94895.30
2024-02-07T14:53:20.419Z,94896.64
2024-02-07T14:55:46.871Z,94893.66
2024-02-07T14:58:13.376Z,94897.41
2024-02-07T15:00:40.293Z,94894.16
2024-02-07T15:03:12.080Z,94896.58
2024-02-07T15:05:38.797Z,94902.41
2024-02-07T15:08:14.264Z,94873.11
2024-02-07T15:10:40.744Z,94888.22
2024-02-07T15:13:07.225Z,94885.46
2024-02-07T15:15:33.576Z,94882.05
2024-02-07T15:18:00.069Z,94880.30
2024-02-07T15:20:26.547Z,94876.09
2024-02-07T15:22:52.909Z,94873.19
2024-02-07T15:25:19.565Z,94864.58
2024-02-07T15:27:46.231Z,94865.94
2024-02-07T15:30:13.189Z,94866.88
2024-02-07T15:32:39.851Z,94852.65
2024-02-07T15:35:08.900Z,94863.54
2024-02-07T15:37:35.428Z,94866.30
2024-02-07T15:40:01.904Z,94862.14
2024-02-07T15:42:28.411Z,94861.92
2024-02-07T15:44:56.012Z,94866.06
2024-02-07T15:47:23.324Z,94859.23
2024-02-07T15:49:49.924Z,94861.64
2024-02-07T15:52:16.428Z,94849.40
2024-02-07T15:54:42.846Z,94849.55
2024-02-07T15:57:09.318Z,94851.58
2024-02-07T15:59:35.773Z,94839.23
2024-02-07T16:02:02.412Z,94842.60
2024-02-07T16:04:28.994Z,94808.98
2024-02-07T16:06:57.192Z,94850.70
2024-02-07T16:09:26.566Z,94846.75
2024-02-07T16:11:53.040Z,94848.47
2024-02-07T16:14:20.278Z,94856.15
2024-02-07T16:16:47.312Z,94845.23
2024-02-07T16:19:13.974Z,94850.33
2024-02-07T16:21:40.385Z,94846.64
2024-02-07T16:24:08.135Z,94843.73
2024-02-07T16:26:34.676Z,94842.05
2024-02-07T16:29:01.801Z,94813.42
2024-02-07T16:31:28.376Z,94826.77
2024-02-07T16:33:55.387Z,94826.39
2024-02-07T16:36:21.865Z,94823.95
2024-02-07T16:38:48.493Z,94828.27
2024-02-07T16:41:15.249Z,94825.89
2024-02-07T16:43:41.816Z,94825.51
2024-02-07T16:46:08.237Z,94821.06
2024-02-07T16:48:34.804Z,94819.53
2024-02-07T16:51:02.526Z,94816.98
2024-02-07T16:53:28.881Z,94817.70
2024-02-07T16:55:55.358Z,94812.08
2024-02-07T16:58:21.998Z,94817.70
2024-02-07T17:00:48.773Z,94820.73
2024-02-07T17:03:15.342Z,94817.43
2024-02-07T17:05:41.899Z,94806.43
2024-02-07T17:08:08.435Z,94812.77
2024-02-07T17:10:35.125Z,94811.77
2024-02-07T17:13:01.694Z,94817.34
2024-02-07T17:15:28.174Z,94820.33
2024-02-07T17:17:54.944Z,94818.73
2024-02-07T17:20:21.580Z,94819.84
2024-02-07T17:22:48.231Z,94813.82
2024-02-07T17:25:14.894Z,94818.37
2024-02-07T17:27:44.490Z,94817.98
2024-02-07T17:30:18.077Z,94792.40
2024-02-07T17:32:51.512Z,94811.79
2024-02-07T17:35:18.061Z,94817.34
2024-02-07T17:37:44.696Z,94814.91
2024-02-07T17:40:11.552Z,94789.39
2024-02-07T17:42:37.987Z,94815.35
2024-02-07T17:45:04.833Z,94807.73
2024-02-07T17:47:31.254Z,94801.15
2024-02-07T17:49:57.822Z,94778.48
2024-02-07T17:52:24.441Z,94801.73
2024-02-07T17:54:50.956Z,94801.17
2024-02-07T17:57:17.412Z,94798.12
2024-02-07T17:59:43.843Z,94770.70
2024-02-07T18:02:10.615Z,94792.05
2024-02-07T18:04:39.858Z,94764.67
2024-02-07T18:07:06.961Z,94779.33
2024-02-07T18:09:33.640Z,94779.84
2024-02-07T18:12:00.060Z,94776.88
2024-02-07T18:14:26.534Z,94768.95
2024-02-07T18:16:52.986Z,94770.25
2024-02-07T18:19:19.633Z,94769.75
2024-02-07T18:21:46.228Z,94766.38
2024-02-07T18:24:17.767Z,94759.70
2024-02-07T18:26:48.386Z,94759.17
2024-02-07T18:29:15.315Z,94765.39
2024-02-07T18:31:41.889Z,94742.04
2024-02-07T18:34:08.523Z,94766.42
2024-02-07T18:36:37.883Z,94766.35
2024-02-07T18:39:04.954Z,94762.88
2024-02-07T18:41:32.634Z,94760.46
2024-02-07T18:43:59.168Z,94756.98
2024-02-07T18:46:25.710Z,94760.77
2024-02-07T18:48:52.368Z,94720.73
2024-02-07T18:51:21.621Z,94753.45
2024-02-07T18:53:48.011Z,94755.73
2024-02-07T18:56:14.583Z,94732.74
2024-02-07T18:58:41.069Z,94749.02
2024-02-07T19:01:07.616Z,94749.16
2024-02-07T19:03:35.791Z,94746.95
2024-02-07T19:06:02.492Z,94742.13
2024-02-07T19:08:29.050Z,94740.02
2024-02-07T19:10:55.557Z,94733.80
2024-02-07T19:13:22.108Z,94734.16
2024-02-07T19:15:48.658Z,94733.05
2024-02-07T19:18:15.228Z,94730.73
2024-02-07T19:20:43.185Z,94730.14
2024-02-07T19:23:09.935Z,94731.55
2024-02-07T19:25:36.479Z,94723.11
2024-02-07T19:28:03.030Z,94721.40
2024-02-07T19:30:29.734Z,94720.14
2024-02-07T19:32:56.231Z,94723.23
2024-02-07T19:35:22.866Z,94718.98
2024-02-07T19:37:49.500Z,94710.13
2024-02-07T19:40:16.133Z,94693.40
2024-02-07T19:42:42.604Z,94712.94
2024-02-07T19:45:09.356Z,94712.27
2024-02-07T19:47:35.983Z,94710.92
2024-02-07T19:50:02.503Z,94673.51
2024-02-07T19:52:28.995Z,94706.80
2024-02-07T19:54:55.442Z,94707.70
2024-02-07T19:57:21.979Z,94694.34
2024-02-07T19:59:48.403Z,94705.86
2024-02-07T20:02:14.956Z,94696.67
2024-02-07T20:04:41.896Z,94700.02
2024-02-07T20:07:08.403Z,94706.31
2024-02-07T20:09:34.928Z,94703.16
2024-02-07T20:12:01.379Z,94680.27
2024-02-07T20:14:29.230Z,94710.23
2024-02-07T20:16:55.798Z,94712.94
2024-02-07T20:19:22.452Z,94707.27
2024-02-07T20:21:49.183Z,94712.68
2024-02-07T20:24:15.698Z,94706.48
2024-02-07T20:26:42.207Z,94708.12
2024-02-07T20:29:08.698Z,94710.07
2024-02-07T20:31:35.145Z,94709.59
2024-02-07T20:34:01.751Z,94718.40
2024-02-07T20:36:29.168Z,94711.23
2024-02-07T20:38:55.950Z,94704.64
2024-02-07T20:41:22.406Z,94703.68
2024-02-07T20:43:49.238Z,94694.11
2024-02-07T20:46:15.722Z,94698.08
2024-02-07T20:48:42.725Z,94694.45
2024-02-07T20:51:09.365Z,94691.49
2024-02-07T20:53:35.817Z,94696.23
2024-02-07T20:56:02.334Z,94697.05
2024-02-07T20:58:28.842Z,94693.02
2024-02-07T21:00:55.327Z,94687.64
2024-02-07T21:03:23.850Z,94687.83
2024-02-07T21:05:54.583Z,94669.92
2024-02-07T21:08:21.004Z,94680.19
2024-02-07T21:10:47.515Z,94670.02
2024-02-07T21:13:14.059Z,94688.17
2024-02-07T21:15:41.427Z,94662.16
2024-02-07T21:18:07.882Z,94683.77
2024-02-07T21:20:34.371Z,94690.06
2024-02-07T21:23:00.875Z,94690.09
2024-02-07T21:25:27.420Z,94684.63
2024-02-07T21:27:53.875Z,94683.91
2024-02-07T21:30:20.300Z,94677.65
2024-02-07T21:32:49.280Z,94682.66
2024-02-07T21:35:15.771Z,94682.58
2024-02-07T21:37:42.469Z,94684.25
2024-02-07T21:40:09.492Z,94677.42
2024-02-07T21:42:35.925Z,94676.04
2024-02-07T21:45:03.903Z,94680.77
2024-02-07T21:47:30.799Z,94678.63
2024-02-07T21:49:57.378Z,94686.20
2024-02-07T21:52:23.982Z,94687.59
2024-02-07T21:54:50.511Z,94665.41
2024-02-07T21:57:16.982Z,94693.42
2024-02-07T21:59:43.441Z,94694.02
2024-02-07T22:02:10.054Z,94678.19
2024-02-07T22:04:36.730Z,94686.66
2024-02-07T22:07:03.661Z,94676.05
2024-02-07T22:09:30.877Z,94692.46
2024-02-07T22:11:57.365Z,94641.05
2024-02-07T22:14:23.808Z,94689.92
2024-02-07T22:16:50.313Z,94690.23
2024-02-07T22:19:16.801Z,94685.44
2024-02-07T22:21:43.493Z,94685.59
2024-02-07T22:24:10.086Z,94679.51
2024-02-07T22:26:40.146Z,94671.00
2024-02-07T22:29:06.717Z,94679.86
2024-02-07T22:31:39.256Z,94671.84
2024-02-07T22:34:05.808Z,94671.58
2024-02-07T22:36:33.095Z,94666.35
2024-02-07T22:38:59.493Z,94671.13
2024-02-07T22:41:26.301Z,94661.57
2024-02-07T22:43:52.753Z,94671.98
2024-02-07T22:46:19.223Z,94661.48
2024-02-07T22:48:45.945Z,94663.03
2024-02-07T22:51:13.008Z,94661.88
2024-02-07T22:53:39.513Z,94660.87
2024-02-07T22:56:07.652Z,94659.48
2024-02-07T22:58:34.170Z,94664.11
2024-02-07T23:01:00.722Z,94662.95
2024-02-07T23:03:27.246Z,94668.11
2024-02-07T23:05:53.912Z,94672.20
2024-02-07T23:08:20.419Z,94663.19
2024-02-07T23:10:48.316Z,94670.04
2024-02-07T23:13:15.306Z,94652.91
2024-02-07T23:15:41.840Z,94675.48
2024-02-07T23:18:08.518Z,94668.02
2024-02-07T23:20:35.223Z,94667.54
2024-02-07T23:23:01.838Z,94670.92
2024-02-07T23:25:28.392Z,94675.09
2024-02-07T23:27:54.959Z,94678.95
2024-02-07T23:30:21.461Z,94671.11
2024-02-07T23:32:48.004Z,94668.56
2024-02-07T23:35:14.664Z,94681.02
2024-02-07T23:37:41.313Z,94678.34
2024-02-07T23:40:08.540Z,94672.75
2024-02-07T23:42:35.364Z,94674.65
2024-02-07T23:45:02.654Z,94664.42
2024-02-07T23:47:29.241Z,94667.79
2024-02-07T23:49:55.752Z,94623.88
2024-02-07T23:52:22.280Z,94665.03
2024-02-07T23:54:50.329Z,94670.58
2024-02-07T23:57:17.255Z,94669.46
2024-02-07T23:59:43.700Z,94669.86
